Time;durP1;ratioP1;P1;durP2;ratioP2;P2;SDS_P1;SDS_P2;PMS_P1;PMS_P2;Temp;Humidity;BMP_temperature;BMP_pressure;BME280_temperature;BME280_humidity;BME280_pressure;Samples;Min_cycle;Max_cycle;Signal;HPM_P1;HPM_P2
2022/09/24 00:00:58;;;;;;;1.50;1.05;;;21.60;44.10;;;;;;5050616;28;20045;-10
2022/09/24 00:03:29;;;;;;;1.20;1.10;;;21.60;44.00;;;;;;5050378;28;20053;-10
2022/09/24 00:06:01;;;;;;;1.20;1.10;;;21.60;44.00;;;;;;5049703;28;20139;-10
2022/09/24 00:08:27;;;;;;;1.20;1.10;;;21.60;44.00;;;;;;5049955;28;20483;-10
2022/09/24 00:10:54;;;;;;;1.15;1.08;;;21.60;44.00;;;;;;5050100;28;20049;-10
2022/09/24 00:13:22;;;;;;;1.40;1.00;;;21.60;44.00;;;;;;5050032;28;20104;-10
2022/09/24 00:15:49;;;;;;;1.30;1.20;;;21.50;44.00;;;;;;5050203;28;21012;-10
2022/09/24 00:18:17;;;;;;;1.00;0.90;;;21.50;44.00;;;;;;5050341;28;20049;-10
2022/09/24 00:20:44;;;;;;;1.20;1.10;;;21.50;44.00;;;;;;5049691;28;20546;-10
2022/09/24 00:23:10;;;;;;;1.40;1.30;;;21.50;44.00;;;;;;5049702;28;20060;-10
2022/09/24 00:28:26;;;;;;;1.60;1.30;;;21.50;44.10;;;;;;5050109;28;20060;-10
2022/09/24 00:30:52;;;;;;;1.25;1.15;;;21.50;44.10;;;;;;5049765;28;20087;-10
2022/09/24 00:33:17;;;;;;;1.35;1.25;;;21.50;44.10;;;;;;5049865;28;20435;-10
2022/09/24 00:35:43;;;;;;;1.92;1.35;;;21.50;44.00;;;;;;5049561;28;20057;-10
2022/09/24 00:38:08;;;;;;;1.60;1.40;;;21.50;44.00;;;;;;5049689;28;20086;-10
2022/09/24 00:40:36;;;;;;;1.10;1.00;;;21.50;44.10;;;;;;5049399;28;20045;-10
2022/09/24 00:43:19;;;;;;;1.15;1.13;;;21.50;44.10;;;;;;5049968;28;20619;-10
2022/09/24 00:45:45;;;;;;;1.20;1.10;;;21.60;44.10;;;;;;5049880;28;20125;-10
2022/09/24 00:48:11;;;;;;;0.80;0.80;;;21.50;44.00;;;;;;5049549;28;20086;-10
2022/09/24 00:50:36;;;;;;;1.70;1.15;;;21.60;44.10;;;;;;5049074;28;20052;-10
2022/09/24 00:53:04;;;;;;;1.30;1.10;;;21.50;44.00;;;;;;5049302;28;20450;-10
2022/09/24 00:55:32;;;;;;;1.85;1.38;;;21.50;44.00;;;;;;5049193;28;20049;-10
2022/09/24 00:58:02;;;;;;;1.65;1.35;;;21.50;44.10;;;;;;5049864;28;20087;-10
2022/09/24 01:00:29;;;;;;;1.55;0.93;;;21.50;44.10;;;;;;5049575;28;20139;-10
2022/09/24 01:03:04;;;;;;;0.95;0.95;;;21.50;44.10;;;;;;5049430;28;20057;-10
2022/09/24 01:05:30;;;;;;;1.00;0.90;;;21.50;44.10;;;;;;5049100;28;20084;-10
2022/09/24 01:07:56;;;;;;;0.95;0.95;;;21.50;44.10;;;;;;5049516;28;20049;-10
2022/09/24 01:10:49;;;;;;;1.05;1.05;;;21.50;44.10;;;;;;5049550;28;20049;-10
2022/09/24 01:13:25;;;;;;;1.40;1.30;;;21.50;44.10;;;;;;5049020;28;20075;-10
2022/09/24 01:16:05;;;;;;;1.08;0.98;;;21.50;44.00;;;;;;5051815;28;20065;-10
2022/09/24 01:18:43;;;;;;;1.30;1.10;;;21.50;44.10;;;;;;5052211;28;20506;-10
2022/09/24 01:21:24;;;;;;;1.52;1.42;;;21.50;44.10;;;;;;5052108;28;20049;-10
2022/09/24 01:24:11;;;;;;;1.10;1.00;;;21.50;44.10;;;;;;5052221;28;20057;-10
2022/09/24 01:26:54;;;;;;;1.10;1.00;;;21.50;44.10;;;;;;5052387;28;20296;-10
2022/09/24 01:29:40;;;;;;;1.40;1.30;;;21.50;44.10;;;;;;5052084;28;20057;-10
2022/09/24 01:32:10;;;;;;;1.30;1.20;;;21.50;44.10;;;;;;5052253;28;20097;-10
2022/09/24 01:34:43;;;;;;;1.50;1.23;;;21.50;44.10;;;;;;5052027;28;20460;-10
2022/09/24 01:37:13;;;;;;;1.20;1.10;;;21.50;44.10;;;;;;5052212;28;20061;-10
2022/09/24 01:39:42;;;;;;;0.95;0.93;;;21.50;44.10;;;;;;5051893;28;20076;-10
2022/09/24 01:42:09;;;;;;;1.27;1.17;;;21.50;44.10;;;;;;5051891;28;20041;-10
2022/09/24 01:44:36;;;;;;;2.25;1.55;;;21.50;44.10;;;;;;5051877;28;20053;-10
2022/09/24 01:47:05;;;;;;;1.30;1.20;;;21.50;44.10;;;;;;5051959;28;20060;-10
2022/09/24 01:49:31;;;;;;;1.00;1.00;;;21.50;44.10;;;;;;5051773;28;20072;-10
2022/09/24 01:52:00;;;;;;;1.30;1.20;;;21.50;44.20;;;;;;5051753;28;20048;-10
2022/09/24 01:54:34;;;;;;;1.67;1.13;;;21.50;44.20;;;;;;5051973;28;20061;-10
2022/09/24 01:57:11;;;;;;;1.20;1.10;;;21.50;44.20;;;;;;5051986;28;20076;-10
2022/09/24 01:59:41;;;;;;;1.15;1.05;;;21.50;44.20;;;;;;5051691;28;20064;-10
2022/09/24 02:02:21;;;;;;;0.90;0.90;;;21.50;44.30;;;;;;5051589;28;20139;-10
2022/09/24 02:04:59;;;;;;;1.10;1.00;;;21.50;44.30;;;;;;5051658;28;20049;-10
2022/09/24 02:07:44;;;;;;;1.10;1.00;;;21.40;44.30;;;;;;5051948;28;20171;-10
2022/09/24 02:10:18;;;;;;;1.40;1.30;;;21.40;44.30;;;;;;5051401;28;20052;-10
2022/09/24 02:12:49;;;;;;;1.20;1.10;;;21.50;44.30;;;;;;5051786;28;20455;-10
2022/09/24 02:15:32;;;;;;;1.23;1.10;;;21.50;44.30;;;;;;5051376;28;20406;-10
2022/09/24 02:18:03;;;;;;;1.25;1.15;;;21.50;44.20;;;;;;5051296;28;20396;-10
2022/09/24 02:20:31;;;;;;;1.20;1.10;;;21.50;44.20;;;;;;5051753;28;20041;-10
2022/09/24 02:22:56;;;;;;;1.20;1.10;;;21.50;44.20;;;;;;5051355;28;20049;-10
2022/09/24 02:25:30;;;;;;;0.93;0.93;;;21.50;44.30;;;;;;5051289;28;20562;-10
2022/09/24 02:27:56;;;;;;;1.67;1.38;;;21.40;44.20;;;;;;5051038;28;20375;-10
2022/09/24 02:30:21;;;;;;;1.17;1.08;;;21.50;44.30;;;;;;5051587;28;20236;-10
2022/09/24 02:32:49;;;;;;;1.92;1.10;;;21.40;44.20;;;;;;5051331;28;20056;-10
2022/09/24 02:35:15;;;;;;;1.65;1.30;;;21.40;44.20;;;;;;5051519;28;20068;-10
2022/09/24 02:37:43;;;;;;;1.40;1.30;;;21.40;44.20;;;;;;5051144;28;20044;-10
2022/09/24 02:40:11;;;;;;;1.25;1.15;;;21.40;44.20;;;;;;5051807;28;20045;-10
2022/09/24 02:42:39;;;;;;;1.30;1.20;;;21.50;44.30;;;;;;5051190;28;20053;-10
2022/09/24 02:45:06;;;;;;;1.33;1.23;;;21.50;44.30;;;;;;5051466;28;20105;-10
2022/09/24 02:47:32;;;;;;;1.48;1.17;;;21.40;44.20;;;;;;5051407;28;20053;-10
2022/09/24 02:49:57;;;;;;;1.30;1.00;;;21.50;44.20;;;;;;5051004;28;20059;-10
2022/09/24 02:52:23;;;;;;;1.25;1.15;;;21.50;44.20;;;;;;5051006;28;20447;-10
2022/09/24 02:54:49;;;;;;;1.33;1.23;;;21.50;44.30;;;;;;5051287;28;20465;-9
2022/09/24 02:57:17;;;;;;;1.20;1.10;;;21.50;44.30;;;;;;5051269;28;20045;-10
2022/09/24 02:59:43;;;;;;;1.30;1.10;;;21.40;44.30;;;;;;5050838;28;20529;-10
2022/09/24 03:02:08;;;;;;;1.20;1.00;;;21.40;44.30;;;;;;5050975;28;20536;-9
2022/09/24 03:04:34;;;;;;;1.73;1.30;;;21.40;44.30;;;;;;5051197;28;20080;-10
2022/09/24 03:07:00;;;;;;;1.30;1.20;;;21.40;44.30;;;;;;5051204;28;20049;-9
2022/09/24 03:09:25;;;;;;;1.30;1.10;;;21.40;44.30;;;;;;5051000;28;20450;-10
2022/09/24 03:11:51;;;;;;;1.58;1.27;;;21.40;44.40;;;;;;5051080;28;20466;-10
2022/09/24 03:14:16;;;;;;;1.33;1.20;;;21.40;44.30;;;;;;5050940;28;20414;-10
2022/09/24 03:16:42;;;;;;;1.55;1.30;;;21.40;44.30;;;;;;5051121;28;20178;-10
2022/09/24 03:19:08;;;;;;;1.00;1.00;;;21.40;44.30;;;;;;5050602;28;20387;-10
2022/09/24 03:21:34;;;;;;;1.10;1.05;;;21.40;44.40;;;;;;5050586;28;20424;-10
2022/09/24 03:24:00;;;;;;;0.85;0.85;;;21.40;44.40;;;;;;5050716;28;20049;-10
2022/09/24 03:26:25;;;;;;;1.83;1.17;;;21.40;44.40;;;;;;5050668;28;20487;-10
2022/09/24 03:28:51;;;;;;;1.20;1.10;;;21.40;44.40;;;;;;5050594;28;20513;-10
2022/09/24 03:31:17;;;;;;;1.20;1.10;;;21.40;44.40;;;;;;5050647;28;20081;-10
2022/09/24 03:33:45;;;;;;;1.35;1.17;;;21.40;44.40;;;;;;5032776;28;20057;-10
2022/09/24 03:36:17;;;;;;;1.42;1.20;;;21.40;44.40;;;;;;5050444;28;20063;-9
2022/09/24 03:38:44;;;;;;;1.38;1.27;;;21.40;44.40;;;;;;5050139;28;20049;-10
2022/09/24 03:41:11;;;;;;;1.50;1.10;;;21.40;44.40;;;;;;5049465;28;20077;-10
2022/09/24 03:43:37;;;;;;;1.10;1.00;;;21.40;44.40;;;;;;5050717;28;20060;-10
2022/09/24 03:46:05;;;;;;;1.48;1.30;;;21.40;44.40;;;;;;5050648;28;20087;-10
2022/09/24 03:48:34;;;;;;;1.30;1.20;;;21.30;44.40;;;;;;5050419;28;20118;-10
2022/09/24 03:51:04;;;;;;;1.77;1.27;;;21.30;44.50;;;;;;5055589;28;20490;-10
2022/09/24 03:53:31;;;;;;;1.35;1.10;;;21.40;44.50;;;;;;5050171;28;20048;-9
2022/09/24 03:55:58;;;;;;;1.00;1.00;;;21.40;44.40;;;;;;5050228;28;20052;-10
2022/09/24 03:58:24;;;;;;;1.30;1.20;;;21.40;44.30;;;;;;5050077;28;20106;-10
2022/09/24 04:00:54;;;;;;;1.20;1.10;;;21.40;44.20;;;;;;5049951;28;20081;-10
2022/09/24 04:03:21;;;;;;;1.33;1.13;;;21.40;44.20;;;;;;5050093;28;20619;-10
2022/09/24 04:05:47;;;;;;;1.13;1.02;;;21.50;44.20;;;;;;5050004;28;20057;-10
2022/09/24 04:08:13;;;;;;;1.50;1.40;;;21.50;44.20;;;;;;5050145;28;20080;-10
2022/09/24 04:10:38;;;;;;;1.33;1.23;;;21.50;44.10;;;;;;5050086;28;20090;-10
2022/09/24 04:13:04;;;;;;;1.35;1.13;;;21.50;44.10;;;;;;5050123;28;20506;-10
2022/09/24 04:15:30;;;;;;;1.10;1.00;;;21.50;44.10;;;;;;5050639;28;20057;-10
2022/09/24 04:17:57;;;;;;;1.13;1.00;;;21.50;44.00;;;;;;5050326;28;20049;-10
2022/09/24 04:20:26;;;;;;;1.90;1.00;;;21.60;44.00;;;;;;5050233;28;20131;-9
2022/09/24 04:22:56;;;;;;;1.30;1.20;;;21.50;44.00;;;;;;5050533;28;20052;-10
2022/09/24 04:25:23;;;;;;;1.40;1.30;;;21.60;44.00;;;;;;5050275;28;20045;-10
2022/09/24 04:27:54;;;;;;;1.40;1.27;;;21.60;44.00;;;;;;5049685;28;20291;-10
2022/09/24 04:30:19;;;;;;;1.47;1.30;;;21.60;44.00;;;;;;5050031;28;20436;-10
2022/09/24 04:32:45;;;;;;;1.20;1.10;;;21.60;44.00;;;;;;5049731;28;20052;-9
2022/09/24 04:35:11;;;;;;;1.25;1.13;;;21.60;44.00;;;;;;5050093;28;20044;-10
2022/09/24 04:37:37;;;;;;;1.23;1.10;;;21.60;44.00;;;;;;5049646;28;20102;-10
2022/09/24 04:40:04;;;;;;;1.27;1.17;;;21.60;44.00;;;;;;5049720;28;20060;-10
2022/09/24 04:42:30;;;;;;;1.27;1.17;;;21.60;44.00;;;;;;5049672;28;20505;-10
2022/09/24 04:44:56;;;;;;;1.27;1.17;;;21.60;43.90;;;;;;5049680;28;20048;-10
2022/09/24 04:47:24;;;;;;;1.15;1.05;;;21.60;43.90;;;;;;5049860;28;20371;-10
2022/09/24 04:49:50;;;;;;;0.93;0.93;;;21.60;43.90;;;;;;5047692;28;20049;-10
2022/09/24 04:52:16;;;;;;;1.13;1.02;;;21.60;43.90;;;;;;5049171;28;20109;-10
2022/09/24 04:54:43;;;;;;;1.20;1.10;;;21.60;43.90;;;;;;5049576;28;20056;-9
2022/09/24 04:57:10;;;;;;;1.40;1.30;;;21.60;43.90;;;;;;5049687;28;20057;-10
2022/09/24 04:59:36;;;;;;;1.52;1.35;;;21.60;43.90;;;;;;5049296;28;20526;-10
2022/09/24 05:02:01;;;;;;;1.70;1.40;;;21.70;43.90;;;;;;5049456;28;20132;-10
2022/09/24 05:04:29;;;;;;;1.10;1.00;;;21.60;43.90;;;;;;5049341;28;20064;-10
2022/09/24 05:06:54;;;;;;;1.55;1.30;;;21.60;43.90;;;;;;5049241;28;20053;-10
2022/09/24 05:09:20;;;;;;;1.27;1.17;;;21.60;43.90;;;;;;5049346;28;20063;-10
2022/09/24 05:11:45;;;;;;;1.20;1.10;;;21.60;43.90;;;;;;5049758;28;20470;-10
2022/09/24 05:14:11;;;;;;;1.25;1.15;;;21.60;43.90;;;;;;5049308;28;20490;-10
2022/09/24 05:16:36;;;;;;;1.33;1.20;;;21.60;43.90;;;;;;5049654;28;20497;-10
2022/09/24 05:19:03;;;;;;;1.27;1.17;;;21.60;43.90;;;;;;5049039;28;20508;-10
2022/09/24 05:21:30;;;;;;;1.35;1.25;;;21.60;43.90;;;;;;5049008;28;20045;-10
2022/09/24 05:23:55;;;;;;;1.48;1.38;;;21.60;43.90;;;;;;5049088;28;20425;-10
2022/09/24 05:29:06;;;;;;;1.42;1.17;;;21.60;44.00;;;;;;5049253;28;20121;-10
2022/09/24 05:31:31;;;;;;;1.13;1.02;;;21.60;44.00;;;;;;5049209;28;20490;-10
2022/09/24 05:33:57;;;;;;;1.10;1.00;;;21.50;44.00;;;;;;5049006;28;20113;-10
2022/09/24 05:36:25;;;;;;;1.10;1.00;;;21.60;44.00;;;;;;5049343;28;20057;-10
2022/09/24 05:38:51;;;;;;;1.35;1.25;;;21.60;44.00;;;;;;5048865;28;20085;-10
2022/09/24 05:41:17;;;;;;;1.30;1.20;;;21.50;44.00;;;;;;5048626;28;20406;-10
2022/09/24 05:43:43;;;;;;;1.10;1.00;;;21.50;44.00;;;;;;5049073;28;20057;-10
2022/09/24 05:46:08;;;;;;;1.20;1.10;;;21.50;44.00;;;;;;5048714;28;20071;-10
2022/09/24 05:48:34;;;;;;;1.48;1.38;;;21.60;44.00;;;;;;5048641;28;20053;-10
2022/09/24 05:51:01;;;;;;;1.20;1.10;;;21.60;44.00;;;;;;5048442;28;20059;-10
2022/09/24 05:53:27;;;;;;;1.38;1.10;;;21.60;44.00;;;;;;5048659;28;20421;-10
2022/09/24 05:55:53;;;;;;;1.10;1.00;;;21.60;44.00;;;;;;5048881;28;20045;-10
2022/09/24 05:58:19;;;;;;;1.88;1.20;;;21.50;44.00;;;;;;5048496;28;20148;-10
2022/09/24 06:00:45;;;;;;;1.17;1.08;;;21.50;44.00;;;;;;5048398;28;20053;-10
2022/09/24 06:03:13;;;;;;;1.30;1.20;;;21.50;44.00;;;;;;5050097;28;20535;-10
2022/09/24 06:05:45;;;;;;;1.00;1.00;;;21.50;44.00;;;;;;5051841;28;20057;-11
2022/09/24 06:08:11;;;;;;;1.30;1.20;;;21.50;44.10;;;;;;5051891;28;20049;-10
2022/09/24 06:10:37;;;;;;;1.20;1.10;;;21.50;44.00;;;;;;5051388;28;20087;-9
2022/09/24 06:13:03;;;;;;;1.20;1.10;;;21.50;44.20;;;;;;5051638;28;20084;-10
2022/09/24 06:15:29;;;;;;;1.13;1.05;;;21.50;44.00;;;;;;5051539;28;20437;-10
2022/09/24 06:17:55;;;;;;;1.38;1.17;;;21.50;44.10;;;;;;5051470;28;20456;-10
2022/09/24 06:20:22;;;;;;;1.00;1.00;;;21.50;44.10;;;;;;5051367;28;20049;-10
2022/09/24 06:22:48;;;;;;;1.00;0.95;;;21.50;44.10;;;;;;5052048;28;20371;-9
2022/09/24 06:25:14;;;;;;;1.00;1.00;;;21.50;44.10;;;;;;5051932;28;20136;-10
2022/09/24 06:27:39;;;;;;;1.23;1.13;;;21.50;44.10;;;;;;5051893;28;20206;-10
2022/09/24 06:30:05;;;;;;;1.30;1.20;;;21.50;44.10;;;;;;5051202;28;20132;-10
2022/09/24 06:32:31;;;;;;;1.00;1.00;;;21.50;44.10;;;;;;5051332;28;20049;-10
2022/09/24 06:34:57;;;;;;;1.35;1.25;;;21.50;44.10;;;;;;5051336;28;20655;-10
2022/09/24 06:37:22;;;;;;;1.17;1.08;;;21.50;44.10;;;;;;5051314;28;20086;-10
2022/09/24 06:39:48;;;;;;;1.08;0.98;;;21.50;44.10;;;;;;5051560;28;20061;-10
2022/09/24 06:42:13;;;;;;;1.45;1.35;;;21.50;44.10;;;;;;5051558;28;20092;-10
2022/09/24 06:44:39;;;;;;;1.10;1.00;;;21.50;44.10;;;;;;5051214;28;20056;-10
2022/09/24 06:47:04;;;;;;;1.00;1.00;;;21.50;44.10;;;;;;5051123;28;20056;-10
2022/09/24 06:49:30;;;;;;;1.30;1.20;;;21.50;44.10;;;;;;5051147;28;20094;-10
2022/09/24 06:51:57;;;;;;;1.60;1.30;;;21.50;44.60;;;;;;5051277;28;20546;-10
2022/09/24 06:54:23;;;;;;;1.13;1.02;;;21.50;44.10;;;;;;5051078;28;20145;-10
2022/09/24 06:56:51;;;;;;;1.35;1.25;;;21.50;44.10;;;;;;5050840;28;20056;-12
2022/09/24 06:59:17;;;;;;;1.20;1.10;;;21.50;44.00;;;;;;5051277;28;20044;-10
2022/09/24 07:01:43;;;;;;;1.17;1.08;;;21.50;44.10;;;;;;5051147;28;20048;-10
2022/09/24 07:04:08;;;;;;;1.33;1.23;;;21.50;44.10;;;;;;5050917;28;20045;-10
2022/09/24 07:09:18;;;;;;;1.55;1.20;;;21.50;44.10;;;;;;5050835;28;20087;-10
2022/09/24 07:11:45;;;;;;;1.20;1.10;;;21.50;44.10;;;;;;5051311;28;20073;-9
2022/09/24 07:14:12;;;;;;;1.38;1.00;;;21.50;44.10;;;;;;5050422;28;20140;-10
2022/09/24 07:16:38;;;;;;;1.52;1.40;;;21.50;44.10;;;;;;5051298;28;20056;-10
2022/09/24 07:19:03;;;;;;;1.40;1.30;;;21.50;44.10;;;;;;5050686;28;20053;-10
2022/09/24 07:21:29;;;;;;;1.20;1.10;;;21.50;44.10;;;;;;5050674;28;20076;-10
2022/09/24 07:23:55;;;;;;;1.27;1.10;;;21.50;44.10;;;;;;5050806;28;20055;-10
2022/09/24 07:26:20;;;;;;;1.20;1.10;;;21.50;44.10;;;;;;5050598;28;20432;-10
2022/09/24 07:28:46;;;;;;;1.55;1.38;;;21.50;44.10;;;;;;5050691;28;20060;-10
2022/09/24 07:31:11;;;;;;;1.25;1.15;;;21.50;44.10;;;;;;5050894;28;20061;-10
2022/09/24 07:33:37;;;;;;;1.20;1.10;;;21.50;44.10;;;;;;5050567;28;20049;-10
2022/09/24 07:36:05;;;;;;;1.17;1.08;;;21.50;44.10;;;;;;5050598;28;20106;-10
2022/09/24 07:38:31;;;;;;;1.35;1.25;;;21.50;44.10;;;;;;5050327;28;20135;-10
2022/09/24 07:40:58;;;;;;;2.08;1.30;;;21.50;44.10;;;;;;5050529;28;20080;-10
2022/09/24 07:43:23;;;;;;;1.13;1.02;;;21.50;44.10;;;;;;5050440;28;20082;-10
2022/09/24 07:45:51;;;;;;;1.17;1.08;;;21.50;44.10;;;;;;5050334;28;20053;-10
2022/09/24 07:48:17;;;;;;;1.25;1.15;;;21.50;44.10;;;;;;5049909;28;20107;-10
2022/09/24 07:50:43;;;;;;;1.30;1.20;;;21.60;44.10;;;;;;5050142;28;20053;-10
2022/09/24 07:53:12;;;;;;;1.42;1.27;;;21.50;44.10;;;;;;5050564;28;20509;-10
2022/09/24 07:55:39;;;;;;;0.98;0.93;;;21.50;44.00;;;;;;5050216;28;20448;-9
2022/09/24 07:58:06;;;;;;;1.50;1.35;;;21.50;44.10;;;;;;5050073;28;20045;-10
2022/09/24 08:00:32;;;;;;;1.40;1.30;;;21.60;44.10;;;;;;5050104;28;20049;-10
2022/09/24 08:02:58;;;;;;;1.10;1.00;;;21.50;44.10;;;;;;5050176;28;20558;-10
2022/09/24 08:05:24;;;;;;;1.20;1.10;;;21.50;44.00;;;;;;5050187;28;20053;-10
2022/09/24 08:07:51;;;;;;;1.42;1.33;;;21.50;44.10;;;;;;5050011;28;20053;-10
2022/09/24 08:10:17;;;;;;;1.20;1.10;;;21.60;44.10;;;;;;5050612;28;20057;-10
2022/09/24 08:12:43;;;;;;;1.15;1.00;;;21.60;44.10;;;;;;5050400;28;20056;-10
2022/09/24 08:15:08;;;;;;;1.30;1.20;;;21.50;44.00;;;;;;5050116;28;20071;-10
2022/09/24 08:17:34;;;;;;;1.52;1.42;;;21.60;44.10;;;;;;5050044;28;20136;-10
2022/09/24 08:20:00;;;;;;;1.23;1.08;;;21.50;44.00;;;;;;5049774;28;20053;-10
2022/09/24 08:22:26;;;;;;;1.40;1.30;;;21.50;44.00;;;;;;5050080;28;20045;-10
2022/09/24 08:24:52;;;;;;;1.35;1.15;;;21.60;44.10;;;;;;5050378;28;20136;-10
2022/09/24 08:27:19;;;;;;;2.40;1.40;;;21.50;44.00;;;;;;5049264;28;20513;-10
2022/09/24 08:29:45;;;;;;;1.20;1.10;;;21.60;44.10;;;;;;5050159;28;20049;-10
2022/09/24 08:32:12;;;;;;;1.40;1.30;;;21.60;44.10;;;;;;5049790;28;20085;-10
2022/09/24 08:34:39;;;;;;;1.30;1.20;;;21.60;44.00;;;;;;5049936;28;20383;-10
2022/09/24 08:37:05;;;;;;;1.30;1.20;;;21.60;44.00;;;;;;5049708;28;20057;-10
2022/09/24 08:39:32;;;;;;;2.03;1.23;;;21.60;44.00;;;;;;5049750;28;20383;-10
2022/09/24 08:42:43;;;;;;;1.20;1.10;;;21.60;44.00;;;;;;5049754;28;20085;-10
2022/09/24 08:48:12;;;;;;;3.08;1.30;;;21.60;44.00;;;;;;5049483;28;20057;-10
2022/09/24 08:50:50;;;;;;;1.20;1.08;;;21.60;44.00;;;;;;5049763;28;20406;-10
2022/09/24 08:53:32;;;;;;;1.80;1.30;;;21.60;44.00;;;;;;5050169;28;20057;-10
2022/09/24 08:56:00;;;;;;;1.08;1.08;;;21.60;44.00;;;;;;5049360;28;20052;-10
2022/09/24 08:58:48;;;;;;;1.50;1.40;;;21.60;44.00;;;;;;5049426;28;20084;-10
2022/09/24 09:01:37;;;;;;;1.00;1.00;;;21.60;44.00;;;;;;5049387;28;20128;-10
2022/09/24 09:04:23;;;;;;;1.23;1.10;;;21.60;44.00;;;;;;5049274;28;20136;-10
2022/09/24 09:06:52;;;;;;;1.23;1.13;;;21.60;44.00;;;;;;5058441;28;20057;-10
2022/09/24 09:09:32;;;;;;;1.25;1.15;;;21.60;44.00;;;;;;5048589;28;20105;-10
2022/09/24 09:12:05;;;;;;;1.17;1.08;;;21.60;44.10;;;;;;5049273;28;20048;-10
2022/09/24 09:15:02;;;;;;;1.45;1.20;;;21.60;44.60;;;;;;5049266;28;20049;-10
2022/09/24 09:17:28;;;;;;;1.25;1.10;;;21.60;44.10;;;;;;5049190;28;20064;-10
2022/09/24 09:20:00;;;;;;;0.98;0.98;;;21.60;44.00;;;;;;5049200;28;20410;-10
2022/09/24 09:22:34;;;;;;;1.23;1.13;;;21.60;44.00;;;;;;5049366;28;20049;-10
2022/09/24 09:25:11;;;;;;;1.20;1.10;;;21.60;44.00;;;;;;5049362;28;20150;-10
2022/09/24 09:27:37;;;;;;;1.17;1.08;;;21.60;44.00;;;;;;5049543;28;20057;-11
2022/09/24 09:30:05;;;;;;;1.20;1.10;;;21.60;44.00;;;;;;5049234;28;20132;-10
2022/09/24 09:32:56;;;;;;;1.10;1.00;;;21.60;44.00;;;;;;5048828;28;20049;-10
2022/09/24 09:35:41;;;;;;;1.17;1.00;;;21.60;44.00;;;;;;5049366;28;20056;-10
2022/09/24 09:38:23;;;;;;;1.30;1.20;;;21.60;44.00;;;;;;5050946;28;20144;-10
2022/09/24 09:41:25;;;;;;;1.20;1.10;;;21.60;44.00;;;;;;5051814;28;20081;-10
2022/09/24 09:43:59;;;;;;;1.27;1.15;;;21.60;44.00;;;;;;5051966;28;20048;-10
2022/09/24 09:46:40;;;;;;;1.13;1.02;;;21.60;44.00;;;;;;5051675;28;20497;-10
2022/09/24 09:49:06;;;;;;;1.20;1.10;;;21.70;44.00;;;;;;5051841;28;20530;-10
2022/09/24 09:51:39;;;;;;;1.35;1.25;;;21.70;44.00;;;;;;5051814;28;20049;-11
2022/09/24 09:54:05;;;;;;;1.40;1.20;;;21.70;43.90;;;;;;5052068;28;20061;-10
2022/09/24 09:56:35;;;;;;;1.20;1.10;;;21.70;44.00;;;;;;5051800;28;20060;-10
2022/09/24 09:59:14;;;;;;;1.10;1.00;;;21.70;44.00;;;;;;5051753;28;20049;-10
2022/09/24 10:01:42;;;;;;;1.48;1.38;;;21.70;43.90;;;;;;5052324;28;20064;-10
2022/09/24 10:04:38;;;;;;;1.10;1.00;;;21.70;43.90;;;;;;5051979;28;20053;-10
2022/09/24 10:07:10;;;;;;;1.08;0.98;;;21.70;43.90;;;;;;5051569;28;20056;-10
2022/09/24 10:09:37;;;;;;;1.50;1.30;;;21.70;43.90;;;;;;5052240;28;20055;-10
2022/09/24 10:12:22;;;;;;;1.33;1.00;;;21.70;43.90;;;;;;5051494;28;20052;-10
2022/09/24 10:15:03;;;;;;;1.30;1.20;;;21.70;44.00;;;;;;5051841;28;20049;-10
2022/09/24 10:17:36;;;;;;;1.20;1.10;;;21.70;44.00;;;;;;5033439;28;20405;-10
2022/09/24 10:20:15;;;;;;;1.27;1.17;;;21.60;44.00;;;;;;5051820;28;20299;-10
2022/09/24 10:22:49;;;;;;;1.20;1.10;;;21.60;43.90;;;;;;5051590;28;20409;-10
2022/09/24 10:25:26;;;;;;;1.45;1.35;;;21.60;44.50;;;;;;5051524;28;20045;-10
2022/09/24 10:30:32;;;;;;;1.27;1.17;;;21.70;44.00;;;;;;5051572;28;20409;-11
2022/09/24 10:31:05;;;;;;;1.10;1.00;;;21.60;44.00;;;;;;5051533;28;20125;-10
2022/09/24 10:33:41;;;;;;;1.30;1.20;;;21.70;44.00;;;;;;5051323;28;20053;-10
2022/09/24 10:36:18;;;;;;;1.85;1.20;;;21.60;43.90;;;;;;5051369;28;20056;-10
2022/09/24 10:38:44;;;;;;;1.27;1.02;;;21.70;44.00;;;;;;5051793;28;20137;-10
2022/09/24 10:41:28;;;;;;;1.35;1.25;;;21.60;44.00;;;;;;5051509;28;20477;-10
2022/09/24 10:43:55;;;;;;;1.15;1.05;;;21.60;44.00;;;;;;5051464;28;20098;-10
2022/09/24 10:46:39;;;;;;;1.17;1.08;;;21.60;44.00;;;;;;5051071;28;20080;-10
2022/09/24 10:49:34;;;;;;;1.27;1.17;;;21.60;44.00;;;;;;5050864;28;20045;-10
2022/09/24 10:52:25;;;;;;;1.33;1.23;;;21.60;44.10;;;;;;5051808;28;20490;-10
2022/09/24 10:55:19;;;;;;;1.00;1.00;;;21.60;44.10;;;;;;5051066;28;20490;-10
2022/09/24 10:58:03;;;;;;;1.15;1.10;;;21.60;44.10;;;;;;5051126;28;20053;-10
2022/09/24 11:01:09;;;;;;;1.25;1.15;;;21.60;44.10;;;;;;5051344;28;20052;-10
2022/09/24 11:03:54;;;;;;;0.90;0.90;;;21.60;44.10;;;;;;5071312;28;20497;-10
2022/09/24 11:06:47;;;;;;;1.23;1.13;;;21.60;44.10;;;;;;5051364;28;20044;-10
2022/09/24 11:09:30;;;;;;;1.30;1.20;;;21.60;44.10;;;;;;5051040;28;20049;-10
2022/09/24 11:12:14;;;;;;;1.10;1.00;;;21.60;44.60;;;;;;5050964;28;20173;-10
2022/09/24 11:15:13;;;;;;;1.17;1.08;;;21.60;44.10;;;;;;5050863;28;20060;-10
2022/09/24 11:17:57;;;;;;;1.10;1.00;;;21.60;44.10;;;;;;5050938;28;20045;-10
2022/09/24 11:20:52;;;;;;;1.02;1.00;;;21.60;44.10;;;;;;5047386;28;20434;-10
2022/09/24 11:23:27;;;;;;;1.17;1.08;;;21.60;44.10;;;;;;5051321;28;20486;-10
2022/09/24 11:26:06;;;;;;;1.10;1.00;;;21.60;44.10;;;;;;5050755;28;20057;-10
2022/09/24 11:29:09;;;;;;;1.33;1.15;;;21.60;44.10;;;;;;5050480;28;20140;-11
2022/09/24 11:32:12;;;;;;;1.52;1.38;;;21.60;44.10;;;;;;5050560;28;20057;-10
2022/09/24 11:35:18;;;;;;;1.20;1.10;;;21.60;44.10;;;;;;5050480;28;20049;-10
2022/09/24 11:38:01;;;;;;;1.20;1.10;;;21.60;44.10;;;;;;5068860;28;20139;-10
2022/09/24 11:40:39;;;;;;;1.27;1.13;;;21.60;44.10;;;;;;5050330;28;20139;-10
2022/09/24 11:43:32;;;;;;;0.90;0.90;;;21.60;44.10;;;;;;5050536;28;20057;-10
2022/09/24 11:46:19;;;;;;;0.98;0.98;;;21.60;44.10;;;;;;5050493;28;20053;-10
2022/09/24 11:49:13;;;;;;;1.30;1.20;;;21.60;44.10;;;;;;5050147;28;20057;-11
2022/09/24 11:52:07;;;;;;;1.40;1.30;;;21.60;44.10;;;;;;5050180;28;20092;-10
2022/09/24 11:54:37;;;;;;;1.33;1.13;;;21.60;44.10;;;;;;5050345;28;20144;-10
2022/09/24 11:57:15;;;;;;;1.33;1.23;;;21.60;44.10;;;;;;5050177;28;20122;-10
2022/09/24 11:59:59;;;;;;;1.10;1.00;;;21.60;44.10;;;;;;5050094;28;20509;-10
2022/09/24 12:02:36;;;;;;;1.33;1.23;;;21.60;44.10;;;;;;5050017;28;20052;-10
2022/09/24 12:05:45;;;;;;;1.40;1.30;;;21.60;44.10;;;;;;5050540;28;20097;-10
2022/09/24 12:08:26;;;;;;;1.00;1.00;;;21.60;44.10;;;;;;5049144;28;20052;-10
2022/09/24 12:11:00;;;;;;;1.10;1.00;;;21.60;44.10;;;;;;5049973;28;20056;-10
2022/09/24 12:13:51;;;;;;;1.15;1.00;;;21.60;44.10;;;;;;5050451;28;20045;-10
2022/09/24 12:16:26;;;;;;;0.80;0.80;;;21.60;44.00;;;;;;5050425;28;20056;-10
2022/09/24 12:19:17;;;;;;;1.08;0.98;;;21.60;44.00;;;;;;5050044;28;20802;-10
2022/09/24 12:21:45;;;;;;;0.77;0.77;;;21.70;44.10;;;;;;5050036;28;20106;-10
2022/09/24 12:24:29;;;;;;;1.30;1.20;;;21.60;44.00;;;;;;5049930;28;20397;-10
2022/09/24 12:26:58;;;;;;;1.30;1.20;;;21.60;44.00;;;;;;5049986;28;20072;-10
2022/09/24 12:35:17;;;;;;;1.30;1.20;;;21.70;44.00;;;;;;5049895;28;20098;-10
2022/09/24 12:37:46;;;;;;;1.35;1.20;;;21.70;44.00;;;;;;5049994;28;20045;-10
2022/09/24 12:40:38;;;;;;;1.30;1.20;;;21.70;44.00;;;;;;5049871;28;20057;-10
2022/09/24 12:43:18;;;;;;;1.10;1.00;;;21.70;44.00;;;;;;5050311;28;20094;-10
2022/09/24 12:45:44;;;;;;;1.40;1.30;;;21.60;44.00;;;;;;5049721;28;20057;-10
2022/09/24 12:48:14;;;;;;;1.40;1.30;;;21.70;44.10;;;;;;5049509;28;20490;-10
2022/09/24 12:50:40;;;;;;;1.42;1.33;;;21.60;44.00;;;;;;5049283;28;20056;-10
2022/09/24 12:53:32;;;;;;;1.20;1.10;;;21.60;44.00;;;;;;5049828;28;20053;-10
2022/09/24 12:56:00;;;;;;;1.02;1.00;;;21.60;44.10;;;;;;5049522;28;20422;-10
2022/09/24 12:58:39;;;;;;;1.00;1.00;;;21.60;44.00;;;;;;5049588;28;20455;-10
2022/09/24 13:01:13;;;;;;;1.40;1.30;;;21.60;44.10;;;;;;5049725;28;20041;-10
2022/09/24 13:03:41;;;;;;;1.00;1.00;;;21.60;44.10;;;;;;5049771;28;20076;-10
2022/09/24 13:06:31;;;;;;;0.93;0.93;;;21.60;44.10;;;;;;5049400;28;20080;-10
2022/09/24 13:08:58;;;;;;;1.08;1.00;;;21.60;44.00;;;;;;5049207;28;20045;-10
2022/09/24 13:11:28;;;;;;;1.42;1.17;;;21.60;44.10;;;;;;5049277;28;20414;-10
2022/09/24 13:14:12;;;;;;;1.75;1.20;;;21.60;44.10;;;;;;5052749;28;20475;-10
2022/09/24 13:16:40;;;;;;;1.10;1.00;;;21.60;44.10;;;;;;5052297;28;20154;-10
2022/09/24 13:19:20;;;;;;;1.88;1.17;;;21.60;44.10;;;;;;5052438;28;20064;-10
2022/09/24 13:21:53;;;;;;;1.23;1.13;;;21.60;44.10;;;;;;5052569;28;20053;-10
2022/09/24 13:24:31;;;;;;;0.90;0.90;;;21.60;44.10;;;;;;5052606;28;20136;-10
2022/09/24 13:27:23;;;;;;;1.38;1.02;;;21.60;44.10;;;;;;5052438;28;20136;-10
2022/09/24 13:30:08;;;;;;;1.20;1.10;;;21.60;44.10;;;;;;5052162;28;20108;-10